createdAt,value
2022-08-20T00:02:14.419Z,17.60
2022-08-20T00:04:41.114Z,17.60
2022-08-20T00:07:07.732Z,17.60
2022-08-20T00:09:36.354Z,17.60
2022-08-20T00:12:05.455Z,17.60
2022-08-20T00:14:33.866Z,17.60
2022-08-20T00:17:01.557Z,17.60
2022-08-20T00:19:28.247Z,17.60
2022-08-20T00:21:56.451Z,17.60
2022-08-20T00:24:25.379Z,17.60
2022-08-20T00:26:52.773Z,17.60
2022-08-20T00:29:20.127Z,17.50
2022-08-20T00:31:47.186Z,17.50
2022-08-20T00:34:13.916Z,17.50
2022-08-20T00:36:40.531Z,17.50
2022-08-20T00:39:07.146Z,17.50
2022-08-20T00:41:33.739Z,17.50
2022-08-20T00:44:26.526Z,17.40
2022-08-20T00:46:53.546Z,17.40
2022-08-20T00:49:32.515Z,17.40
2022-08-20T00:52:01.954Z,17.40
2022-08-20T00:54:45.005Z,17.40
2022-08-20T00:57:19.135Z,17.40
2022-08-20T00:59:46.158Z,17.30
2022-08-20T01:02:16.108Z,17.30
2022-08-20T01:04:42.896Z,17.40
2022-08-20T01:07:09.511Z,17.40
2022-08-20T01:09:58.598Z,17.40
2022-08-20T01:12:25.354Z,17.40
2022-08-20T01:14:52.882Z,17.40
2022-08-20T01:17:24.022Z,17.40
2022-08-20T01:19:57.758Z,17.40
2022-08-20T01:22:32.071Z,17.40
2022-08-20T01:25:10.026Z,17.40
2022-08-20T01:27:42.923Z,17.50
2022-08-20T01:30:10.067Z,17.40
2022-08-20T01:32:36.682Z,17.40
2022-08-20T01:35:04.282Z,17.40
2022-08-20T01:37:31.649Z,17.50
2022-08-20T01:39:58.979Z,17.50
2022-08-20T01:42:37.670Z,17.50
2022-08-20T01:45:26.966Z,17.50
2022-08-20T01:47:54.701Z,17.50
2022-08-20T01:50:25.854Z,17.50
2022-08-20T01:53:01.093Z,17.50
2022-08-20T01:55:27.769Z,17.50
2022-08-20T01:57:54.573Z,17.50
2022-08-20T02:00:22.314Z,17.50
2022-08-20T02:02:49.643Z,17.50
2022-08-20T02:05:17.886Z,17.60
2022-08-20T02:07:44.550Z,17.50
2022-08-20T02:10:14.358Z,17.50
2022-08-20T02:12:41.565Z,17.50
2022-08-20T02:15:10.240Z,17.50
2022-08-20T02:17:38.801Z,17.50
2022-08-20T02:20:15.452Z,17.50
2022-08-20T02:22:50.422Z,17.50
2022-08-20T02:25:18.772Z,17.50
2022-08-20T02:27:47.388Z,17.60
2022-08-20T02:30:27.523Z,17.50
2022-08-20T02:32:56.310Z,17.50
2022-08-20T02:35:23.556Z,17.50
2022-08-20T02:37:51.250Z,17.50
2022-08-20T02:40:27.258Z,17.50
2022-08-20T02:42:58.097Z,17.50
2022-08-20T02:45:24.743Z,17.50
2022-08-20T02:47:51.656Z,17.50
2022-08-20T02:50:20.189Z,17.50
2022-08-20T02:52:51.847Z,17.50
2022-08-20T02:55:25.333Z,17.50
2022-08-20T02:57:58.644Z,17.50
2022-08-20T03:00:27.919Z,17.50
2022-08-20T03:02:54.547Z,17.50
2022-08-20T03:05:21.152Z,17.40
2022-08-20T03:07:50.852Z,17.40
2022-08-20T03:10:17.646Z,17.40
2022-08-20T03:12:44.355Z,17.50
2022-08-20T03:15:17.186Z,17.50
2022-08-20T03:17:45.251Z,17.40
2022-08-20T03:20:12.681Z,17.40
2022-08-20T03:22:39.298Z,17.50
2022-08-20T03:25:06.698Z,17.50
2022-08-20T03:27:36.520Z,17.50
2022-08-20T03:30:06.442Z,17.40
2022-08-20T03:32:33.215Z,17.50
2022-08-20T03:34:59.927Z,17.50
2022-08-20T03:37:30.743Z,17.50
2022-08-20T03:39:57.528Z,17.50
2022-08-20T03:42:24.169Z,17.50
2022-08-20T03:44:58.481Z,17.50
2022-08-20T03:47:26.484Z,17.50
2022-08-20T03:49:57.348Z,17.50
2022-08-20T03:52:23.985Z,17.50
2022-08-20T03:54:50.594Z,17.50
2022-08-20T03:57:17.216Z,17.50
2022-08-20T03:59:44.239Z,17.50
2022-08-20T04:02:11.748Z,17.50
2022-08-20T04:04:39.389Z,17.50
2022-08-20T04:07:25.245Z,17.50
2022-08-20T04:09:53.588Z,17.50
2022-08-20T04:12:20.419Z,17.40
2022-08-20T04:14:47.647Z,17.40
2022-08-20T04:17:14.322Z,17.40
2022-08-20T04:19:41.605Z,17.40
2022-08-20T04:22:08.189Z,17.40
2022-08-20T04:24:35.178Z,17.40
2022-08-20T04:27:01.994Z,17.40
2022-08-20T04:29:32.438Z,17.40
2022-08-20T04:31:59.817Z,17.40
2022-08-20T04:34:26.463Z,17.40
2022-08-20T04:36:53.044Z,17.40
2022-08-20T04:39:19.645Z,17.40
2022-08-20T04:41:46.257Z,17.50
2022-08-20T04:44:12.866Z,17.40
2022-08-20T04:46:40.051Z,17.40
2022-08-20T04:49:07.210Z,17.40
2022-08-20T04:51:34.121Z,17.50
2022-08-20T04:54:01.732Z,17.50
2022-08-20T04:56:31.263Z,17.50
2022-08-20T04:59:00.249Z,17.50
2022-08-20T05:01:27.853Z,17.50
2022-08-20T05:03:56.491Z,17.50
2022-08-20T05:06:27.183Z,17.60
2022-08-20T05:08:54.896Z,17.60
2022-08-20T05:11:35.913Z,17.50
2022-08-20T05:14:08.147Z,17.50
2022-08-20T05:16:36.942Z,17.50
2022-08-20T05:19:03.824Z,17.60
2022-08-20T05:21:30.435Z,17.60
2022-08-20T05:23:57.040Z,17.60
2022-08-20T05:26:23.630Z,17.70
2022-08-20T05:28:58.819Z,17.60
2022-08-20T05:31:32.157Z,17.60
2022-08-20T05:34:01.301Z,17.60
2022-08-20T05:36:27.950Z,17.60
2022-08-20T05:38:54.546Z,17.60
2022-08-20T05:41:28.708Z,17.50
2022-08-20T05:43:57.233Z,17.60
2022-08-20T05:46:23.864Z,17.60
2022-08-20T05:48:50.465Z,17.50
2022-08-20T05:51:17.108Z,17.60
2022-08-20T05:53:43.710Z,17.60
2022-08-20T05:56:10.483Z,17.60
2022-08-20T05:58:37.792Z,17.60
2022-08-20T06:01:04.965Z,17.60
2022-08-20T06:03:31.691Z,17.60
2022-08-20T06:06:01.171Z,17.60
2022-08-20T06:08:27.800Z,17.60
2022-08-20T06:10:54.591Z,17.70
2022-08-20T06:13:21.169Z,17.70
2022-08-20T06:15:48.058Z,17.70
2022-08-20T06:18:27.609Z,17.70
2022-08-20T06:20:55.791Z,17.70
2022-08-20T06:23:22.607Z,17.70
2022-08-20T06:25:49.211Z,17.80
2022-08-20T06:28:15.978Z,17.80
2022-08-20T06:30:42.600Z,17.70
2022-08-20T06:33:09.223Z,17.70
2022-08-20T06:35:35.879Z,17.70
2022-08-20T06:38:02.484Z,17.80
2022-08-20T06:40:29.338Z,17.80
2022-08-20T06:42:57.499Z,17.70
2022-08-20T06:45:26.968Z,17.70
2022-08-20T06:47:56.142Z,17.70
2022-08-20T06:50:30.180Z,17.70
2022-08-20T06:52:57.440Z,17.80
2022-08-20T06:55:24.132Z,17.70
2022-08-20T06:58:00.926Z,17.80
2022-08-20T07:00:34.530Z,17.80
2022-08-20T07:03:02.205Z,17.80
2022-08-20T07:05:30.564Z,17.80
2022-08-20T07:07:57.202Z,17.80
2022-08-20T07:10:24.909Z,17.80
2022-08-20T07:12:51.903Z,17.90
2022-08-20T07:15:20.605Z,17.90
2022-08-20T07:18:00.708Z,17.90
2022-08-20T07:20:28.784Z,17.80
2022-08-20T07:22:55.560Z,17.80
2022-08-20T07:25:22.679Z,17.80
2022-08-20T07:27:50.188Z,17.80
2022-08-20T07:30:27.053Z,17.90
2022-08-20T07:32:53.779Z,17.90
2022-08-20T07:35:21.560Z,18.00
2022-08-20T07:37:51.191Z,18.00
2022-08-20T07:40:25.664Z,18.00
2022-08-20T07:42:53.887Z,18.10
2022-08-20T07:45:20.922Z,18.10
2022-08-20T07:47:48.218Z,18.20
2022-08-20T07:50:18.174Z,18.20
2022-08-20T07:52:45.411Z,18.20
2022-08-20T07:55:15.930Z,18.20
2022-08-20T07:57:43.483Z,18.20
2022-08-20T08:00:11.729Z,18.20
2022-08-20T08:02:38.356Z,18.20
2022-08-20T08:05:05.899Z,18.30
2022-08-20T08:07:33.826Z,18.30
2022-08-20T08:10:05.238Z,18.30
2022-08-20T08:12:42.212Z,18.30
2022-08-20T08:15:13.803Z,18.40
2022-08-20T08:17:40.741Z,18.40
2022-08-20T08:20:08.867Z,18.40
2022-08-20T08:22:35.987Z,18.40
2022-08-20T08:25:02.634Z,18.50
2022-08-20T08:27:29.936Z,18.50
2022-08-20T08:29:56.551Z,18.60
2022-08-20T08:32:23.167Z,18.50
2022-08-20T08:34:49.775Z,18.60
2022-08-20T08:37:16.387Z,18.70
2022-08-20T08:39:43.007Z,18.70
2022-08-20T08:42:34.026Z,18.70
2022-08-20T08:45:00.766Z,18.70
2022-08-20T08:47:32.127Z,18.80
2022-08-20T08:49:58.810Z,18.90
2022-08-20T08:52:31.702Z,18.90
2022-08-20T08:55:04.671Z,19.00
2022-08-20T08:57:31.546Z,19.00
2022-08-20T09:00:09.474Z,19.00
2022-08-20T09:02:37.500Z,19.00
2022-08-20T09:05:14.110Z,19.00
2022-08-20T09:07:51.012Z,19.00
2022-08-20T09:10:22.859Z,19.10
2022-08-20T09:12:50.688Z,19.10
2022-08-20T09:15:18.829Z,19.10
2022-08-20T09:17:45.429Z,19.10
2022-08-20T09:20:12.145Z,19.10
2022-08-20T09:22:38.767Z,19.10
2022-08-20T09:25:05.910Z,19.20
2022-08-20T09:27:32.528Z,19.20
2022-08-20T09:29:59.139Z,19.20
2022-08-20T09:32:26.112Z,19.20
2022-08-20T09:34:54.450Z,19.30
2022-08-20T09:37:21.491Z,19.30
2022-08-20T09:39:48.491Z,19.30
2022-08-20T09:42:21.844Z,19.40
2022-08-20T09:44:48.494Z,19.40
2022-08-20T09:47:15.613Z,19.40
2022-08-20T09:49:42.196Z,19.40
2022-08-20T09:52:14.033Z,19.50
2022-08-20T09:54:46.531Z,19.50
2022-08-20T09:57:15.264Z,19.60
2022-08-20T09:59:42.437Z,19.60
2022-08-20T10:02:09.129Z,19.60
2022-08-20T10:04:35.772Z,19.60
2022-08-20T10:07:06.330Z,19.70
2022-08-20T10:09:34.359Z,19.60
2022-08-20T10:12:00.975Z,19.70
2022-08-20T10:14:27.553Z,19.70
2022-08-20T10:16:56.426Z,19.80
2022-08-20T10:19:27.722Z,19.80
2022-08-20T10:21:54.839Z,19.80
2022-08-20T10:24:22.282Z,19.90
2022-08-20T10:26:49.474Z,19.90
2022-08-20T10:29:16.581Z,20.00
2022-08-20T10:31:43.490Z,20.00
2022-08-20T10:34:10.078Z,20.00
2022-08-20T10:36:36.733Z,20.00
2022-08-20T10:39:03.374Z,20.00
2022-08-20T10:41:29.977Z,20.10
2022-08-20T10:43:56.586Z,20.10
2022-08-20T10:46:23.265Z,20.20
2022-08-20T10:48:49.921Z,20.20
2022-08-20T10:51:16.565Z,20.30
2022-08-20T10:53:43.307Z,20.30
2022-08-20T10:56:12.764Z,20.30
2022-08-20T10:58:42.134Z,20.40
2022-08-20T11:01:11.306Z,20.30
2022-08-20T11:03:37.945Z,20.40
2022-08-20T11:06:04.868Z,20.40
2022-08-20T11:08:33.763Z,20.40
2022-08-20T11:11:01.174Z,20.40
2022-08-20T11:13:27.766Z,20.40
2022-08-20T11:15:54.377Z,20.40
2022-08-20T11:18:20.985Z,20.30
2022-08-20T11:20:47.600Z,20.30
2022-08-20T11:23:14.226Z,20.30
2022-08-20T11:25:40.814Z,20.40
2022-08-20T11:28:07.556Z,20.40
2022-08-20T11:30:36.392Z,20.30
2022-08-20T11:33:04.112Z,20.30
2022-08-20T11:35:50.069Z,20.40
2022-08-20T11:38:17.741Z,20.50
2022-08-20T11:40:44.662Z,20.60
2022-08-20T11:43:14.534Z,20.60
2022-08-20T11:45:42.359Z,20.60
2022-08-20T11:48:09.034Z,20.70
2022-08-20T11:50:35.658Z,20.70
2022-08-20T11:53:02.316Z,20.70
2022-08-20T11:55:30.100Z,20.70
2022-08-20T11:58:00.486Z,20.70
2022-08-20T12:00:31.793Z,20.70
2022-08-20T12:03:03.733Z,20.70
2022-08-20T12:05:30.716Z,20.80
2022-08-20T12:08:00.189Z,20.90
2022-08-20T12:10:27.490Z,20.90
2022-08-20T12:12:55.187Z,20.90
2022-08-20T12:15:21.883Z,20.90
2022-08-20T12:17:48.574Z,20.90
2022-08-20T12:20:15.498Z,21.00
2022-08-20T12:22:42.955Z,21.00
2022-08-20T12:25:09.999Z,21.10
2022-08-20T12:27:37.980Z,21.10
2022-08-20T12:30:08.818Z,21.10
2022-08-20T12:32:35.490Z,21.10
2022-08-20T12:35:02.459Z,21.10
2022-08-20T12:37:31.106Z,21.20
2022-08-20T12:39:59.704Z,21.20
2022-08-20T12:42:27.479Z,21.20
2022-08-20T12:44:54.075Z,21.30
2022-08-20T12:47:24.385Z,21.20
2022-08-20T12:50:00.129Z,21.30
2022-08-20T12:52:28.088Z,21.30
2022-08-20T12:54:55.434Z,21.20
2022-08-20T12:57:28.877Z,21.30
2022-08-20T12:59:57.728Z,21.40
2022-08-20T13:02:26.299Z,21.50
2022-08-20T13:04:53.081Z,21.50
2022-08-20T13:07:20.118Z,21.50
2022-08-20T13:09:46.731Z,21.60
2022-08-20T13:12:13.346Z,21.60
2022-08-20T13:14:41.293Z,21.50
2022-08-20T13:17:08.610Z,21.50
2022-08-20T13:19:37.155Z,21.50
2022-08-20T13:22:04.086Z,21.40
2022-08-20T13:24:30.766Z,21.40
2022-08-20T13:27:22.419Z,21.30
2022-08-20T13:29:57.746Z,21.30
2022-08-20T13:32:25.259Z,21.20
2022-08-20T13:34:51.869Z,21.10
2022-08-20T13:37:28.040Z,21.10
2022-08-20T13:39:55.815Z,21.00
2022-08-20T13:42:22.690Z,20.80
2022-08-20T13:44:49.831Z,20.60
2022-08-20T13:47:22.848Z,20.40
2022-08-20T13:49:58.544Z,20.20
2022-08-20T13:52:26.308Z,20.20
2022-08-20T13:54:54.000Z,20.10
2022-08-20T13:57:22.720Z,20.10
2022-08-20T13:59:51.263Z,20.00
2022-08-20T14:02:18.599Z,20.00
2022-08-20T14:04:46.362Z,20.00
2022-08-20T14:07:17.254Z,19.90
2022-08-20T14:09:47.379Z,19.90
2022-08-20T14:12:14.814Z,19.80
2022-08-20T14:14:42.821Z,19.80
2022-08-20T14:17:17.095Z,19.70
2022-08-20T14:19:44.327Z,19.60
2022-08-20T14:22:11.130Z,19.60
2022-08-20T14:24:37.955Z,19.50
2022-08-20T14:27:06.655Z,19.50
2022-08-20T14:29:38.169Z,19.60
2022-08-20T14:32:06.012Z,19.50
2022-08-20T14:34:33.419Z,19.30
2022-08-20T14:37:28.340Z,18.90
2022-08-20T14:39:57.519Z,18.60
2022-08-20T14:42:24.739Z,18.50
2022-08-20T14:44:51.373Z,18.60
2022-08-20T14:47:25.923Z,18.50
2022-08-20T14:49:55.170Z,18.50
2022-08-20T14:52:23.184Z,18.60
2022-08-20T14:54:55.031Z,18.50
2022-08-20T14:57:21.903Z,18.60
2022-08-20T14:59:49.080Z,18.40
2022-08-20T15:02:16.858Z,18.50
2022-08-20T15:04:44.733Z,18.50
2022-08-20T15:07:33.886Z,18.50
2022-08-20T15:10:01.751Z,18.50
2022-08-20T15:12:28.708Z,18.40
2022-08-20T15:14:55.355Z,18.40
2022-08-20T15:17:25.239Z,18.40
2022-08-20T15:19:52.506Z,18.50
2022-08-20T15:22:20.467Z,18.50
2022-08-20T15:24:47.840Z,18.40
2022-08-20T15:27:32.521Z,18.50
2022-08-20T15:29:59.114Z,18.50
2022-08-20T15:32:25.698Z,18.50
2022-08-20T15:34:52.323Z,18.50
2022-08-20T15:37:21.711Z,18.50
2022-08-20T15:39:48.944Z,18.40
2022-08-20T15:42:16.853Z,18.40
2022-08-20T15:44:45.478Z,18.40
2022-08-20T15:47:32.002Z,18.50
2022-08-20T15:50:26.230Z,18.50
2022-08-20T15:52:55.374Z,18.60
2022-08-20T15:55:22.263Z,18.60
2022-08-20T15:57:48.794Z,18.70
2022-08-20T16:00:25.360Z,18.70
2022-08-20T16:03:09.463Z,18.80
2022-08-20T16:06:02.268Z,18.80
2022-08-20T16:08:47.629Z,18.80
2022-08-20T16:11:28.956Z,18.70
2022-08-20T16:14:10.665Z,18.70
2022-08-20T16:16:50.236Z,18.80
2022-08-20T16:19:36.191Z,18.80
2022-08-20T16:22:04.570Z,18.80
2022-08-20T16:24:32.169Z,18.80
2022-08-20T16:27:30.917Z,18.70
2022-08-20T16:30:06.827Z,18.70
2022-08-20T16:32:44.581Z,18.70
2022-08-20T16:35:34.857Z,18.80
2022-08-20T16:38:25.282Z,18.80
2022-08-20T16:41:21.377Z,18.90
2022-08-20T16:43:59.844Z,18.90
2022-08-20T16:46:35.065Z,18.80
2022-08-20T16:49:12.480Z,18.80
2022-08-20T16:51:51.699Z,18.80
2022-08-20T16:54:20.591Z,18.80
2022-08-20T16:57:05.658Z,18.80
2022-08-20T16:59:33.415Z,18.80
2022-08-20T17:02:10.607Z,18.90
2022-08-20T17:04:59.259Z,18.80
2022-08-20T17:07:38.992Z,18.80
2022-08-20T17:10:21.039Z,18.90
2022-08-20T17:13:20.327Z,18.90
2022-08-20T17:16:00.013Z,18.80
2022-08-20T17:18:30.491Z,18.80
2022-08-20T17:21:17.400Z,18.80
2022-08-20T17:23:56.362Z,18.80
2022-08-20T17:26:41.106Z,18.80
2022-08-20T17:29:17.002Z,18.80
2022-08-20T17:31:47.911Z,18.80
2022-08-20T17:34:21.095Z,18.70
2022-08-20T17:36:56.255Z,18.80
2022-08-20T17:39:25.544Z,18.80
2022-08-20T17:41:58.211Z,18.70
2022-08-20T17:44:28.220Z,18.70
2022-08-20T17:46:57.284Z,18.70
2022-08-20T17:49:34.350Z,18.80
2022-08-20T17:52:05.739Z,18.70
2022-08-20T17:54:40.298Z,18.70
2022-08-20T17:57:15.285Z,18.70
2022-08-20T18:00:01.210Z,18.70
2022-08-20T18:02:29.046Z,18.70
2022-08-20T18:04:55.826Z,18.70
2022-08-20T18:07:39.383Z,18.70
2022-08-20T18:10:17.595Z,18.70
2022-08-20T18:12:55.671Z,18.70
2022-08-20T18:15:29.290Z,18.70
2022-08-20T18:18:22.589Z,18.70
2022-08-20T18:21:20.952Z,18.70
2022-08-20T18:24:05.373Z,18.70
2022-08-20T18:26:46.030Z,18.70
2022-08-20T18:29:19.371Z,18.60
2022-08-20T18:31:53.719Z,18.60
2022-08-20T18:34:46.929Z,18.60
2022-08-20T18:37:13.461Z,18.60
2022-08-20T18:39:43.282Z,18.60
2022-08-20T18:42:34.019Z,18.50
2022-08-20T18:45:00.940Z,18.50
2022-08-20T18:47:43.125Z,18.50
2022-08-20T18:50:33.195Z,18.60
2022-08-20T18:53:11.042Z,18.50
2022-08-20T18:55:44.517Z,18.60
2022-08-20T18:58:13.961Z,18.50
2022-08-20T19:00:48.134Z,18.50
2022-08-20T19:03:38.849Z,18.50
2022-08-20T19:06:23.547Z,18.40
2022-08-20T19:09:08.801Z,18.50
2022-08-20T19:11:41.080Z,18.40
2022-08-20T19:14:20.381Z,18.40
2022-08-20T19:16:57.649Z,18.40
2022-08-20T19:19:28.480Z,18.40
2022-08-20T19:21:59.358Z,18.30
2022-08-20T19:24:29.524Z,18.30
2022-08-20T19:27:02.798Z,18.40
2022-08-20T19:29:40.799Z,18.40
2022-08-20T19:32:15.778Z,18.30
2022-08-20T19:34:42.497Z,18.40
2022-08-20T19:37:35.137Z,18.40
2022-08-20T19:40:18.338Z,18.40
2022-08-20T19:42:46.092Z,18.30
2022-08-20T19:45:40.683Z,18.30
2022-08-20T19:48:38.742Z,18.40
2022-08-20T19:51:12.913Z,18.40
2022-08-20T19:53:46.114Z,18.40
2022-08-20T19:56:14.295Z,18.40
2022-08-20T19:58:41.501Z,18.40
2022-08-20T20:01:17.360Z,18.40
2022-08-20T20:03:58.735Z,18.40
2022-08-20T20:06:26.891Z,18.40
2022-08-20T20:08:59.381Z,18.30
2022-08-20T20:11:34.967Z,18.30
2022-08-20T20:14:07.897Z,18.30
2022-08-20T20:16:35.700Z,18.20
2022-08-20T20:19:25.308Z,18.20
2022-08-20T20:22:11.839Z,18.20
2022-08-20T20:24:49.358Z,18.10
2022-08-20T20:27:22.597Z,18.10
2022-08-20T20:29:49.264Z,18.10
2022-08-20T20:32:21.462Z,18.20
2022-08-20T20:34:59.939Z,18.10
2022-08-20T20:37:49.904Z,18.10
2022-08-20T20:40:28.079Z,18.10
2022-08-20T20:43:10.383Z,18.10
2022-08-20T20:45:42.862Z,18.10
2022-08-20T20:48:24.230Z,18.10
2022-08-20T20:50:52.208Z,18.10
2022-08-20T20:53:53.419Z,18.00
2022-08-20T20:56:56.379Z,18.10
2022-08-20T20:59:22.963Z,18.10
2022-08-20T21:01:50.690Z,18.10
2022-08-20T21:04:22.614Z,18.00
2022-08-20T21:06:55.099Z,18.00
2022-08-20T21:09:23.976Z,18.00
2022-08-20T21:11:50.659Z,18.00
2022-08-20T21:14:18.494Z,18.00
2022-08-20T21:16:45.563Z,17.90
2022-08-20T21:19:12.651Z,18.00
2022-08-20T21:21:40.240Z,18.00
2022-08-20T21:24:07.206Z,18.00
2022-08-20T21:26:34.334Z,18.00
2022-08-20T21:29:01.122Z,18.00
2022-08-20T21:31:32.467Z,18.00
2022-08-20T21:33:59.363Z,18.00
2022-08-20T21:36:26.034Z,17.90
2022-08-20T21:38:52.627Z,17.90
2022-08-20T21:41:19.514Z,17.90
2022-08-20T21:43:57.485Z,17.90
2022-08-20T21:46:24.821Z,17.80
2022-08-20T21:48:51.796Z,17.80
2022-08-20T21:51:18.481Z,17.80
2022-08-20T21:53:45.100Z,17.80
2022-08-20T21:56:11.718Z,17.70
2022-08-20T21:58:39.058Z,17.70
2022-08-20T22:01:13.940Z,17.70
2022-08-20T22:03:41.274Z,17.70
2022-08-20T22:06:10.064Z,17.70
2022-08-20T22:08:36.966Z,17.60
2022-08-20T22:11:05.088Z,17.60
2022-08-20T22:13:32.875Z,17.60
2022-08-20T22:16:05.355Z,17.60
2022-08-20T22:18:32.403Z,17.50
2022-08-20T22:20:59.627Z,17.50
2022-08-20T22:23:26.259Z,17.50
2022-08-20T22:25:52.914Z,17.50
2022-08-20T22:28:20.096Z,17.50
2022-08-20T22:30:47.250Z,17.40
2022-08-20T22:33:19.793Z,17.40
2022-08-20T22:35:50.209Z,17.40
2022-08-20T22:38:17.349Z,17.40
2022-08-20T22:40:44.171Z,17.40
2022-08-20T22:43:11.306Z,17.40
2022-08-20T22:45:38.730Z,17.30
2022-08-20T22:48:07.891Z,17.30
2022-08-20T22:50:36.735Z,17.30
2022-08-20T22:53:03.892Z,17.30
2022-08-20T22:55:30.502Z,17.30
2022-08-20T22:57:57.158Z,17.30
2022-08-20T23:00:23.839Z,17.30
2022-08-20T23:02:54.629Z,17.20
2022-08-20T23:05:25.065Z,17.20
2022-08-20T23:07:54.295Z,17.20
2022-08-20T23:10:21.928Z,17.10
2022-08-20T23:12:49.047Z,17.10
2022-08-20T23:15:15.724Z,17.10
2022-08-20T23:17:43.069Z,17.10
2022-08-20T23:20:12.643Z,17.10
2022-08-20T23:22:39.539Z,17.10
2022-08-20T23:25:07.695Z,17.10
2022-08-20T23:27:40.051Z,17.10
2022-08-20T23:30:07.391Z,17.00
2022-08-20T23:32:34.001Z,17.00
2022-08-20T23:35:00.607Z,17.00
2022-08-20T23:37:27.231Z,17.00
2022-08-20T23:39:53.995Z,17.00
2022-08-20T23:42:20.639Z,16.90
2022-08-20T23:44:47.229Z,16.90
2022-08-20T23:47:19.710Z,16.90
2022-08-20T23:49:46.603Z,16.90
2022-08-20T23:52:13.276Z,16.90
2022-08-20T23:54:40.779Z,16.90
2022-08-20T23:57:08.464Z,16.80
2022-08-20T23:59:35.262Z,16.80
